Time;durP1;ratioP1;P1;durP2;ratioP2;P2;SDS_P1;SDS_P2;PMS_P1;PMS_P2;Temp;Humidity;BMP_temperature;BMP_pressure;BME280_temperature;BME280_humidity;BME280_pressure;Samples;Min_cycle;Max_cycle;Signal;HPM_P1;HPM_P2
2023/06/16 00:01:09;;;;;;;4.23;3.57;;;;;;;16.91;67.16;98094.16;5062544;28;20687;-75
2023/06/16 00:03:36;;;;;;;4.87;3.53;;;;;;;16.77;67.55;98088.44;5075439;28;20208;-75
2023/06/16 00:06:12;;;;;;;4.17;3.83;;;;;;;16.69;67.99;98086.22;5066048;28;20228;-75
2023/06/16 00:08:39;;;;;;;4.33;3.93;;;;;;;16.59;68.72;98091.50;5062935;28;20189;-75
2023/06/16 00:11:05;;;;;;;4.00;3.50;;;;;;;16.57;69.18;98090.97;5061328;28;20201;-75
2023/06/16 00:13:32;;;;;;;8.43;4.03;;;;;;;16.49;70.65;98091.44;5074076;28;20201;-75
2023/06/16 00:15:58;;;;;;;4.63;4.00;;;;;;;16.59;69.05;98090.69;5073794;28;20699;-75
2023/06/16 00:18:27;;;;;;;3.90;3.60;;;;;;;16.62;68.31;98087.50;5074125;28;20566;-75
2023/06/16 00:20:54;;;;;;;4.10;3.67;;;;;;;16.56;68.42;98093.91;5073078;28;20217;-75
2023/06/16 00:23:22;;;;;;;4.20;3.90;;;;;;;16.40;69.80;98092.94;5073349;28;20227;-75
2023/06/16 00:25:49;;;;;;;3.80;3.50;;;;;;;16.44;70.29;98090.56;5068728;28;20225;-75
2023/06/16 00:28:15;;;;;;;3.83;3.53;;;;;;;16.36;70.24;98096.34;5056698;28;20211;-75
2023/06/16 00:30:42;;;;;;;5.30;3.60;;;;;;;16.39;68.35;98094.00;5054085;28;20631;-75
2023/06/16 00:33:10;;;;;;;3.77;3.30;;;;;;;16.36;69.80;98099.84;5054277;28;20628;-75
2023/06/16 00:35:36;;;;;;;3.80;3.43;;;;;;;16.43;68.08;98103.19;5053822;28;20716;-75
2023/06/16 00:38:03;;;;;;;3.73;3.43;;;;;;;16.38;69.06;98102.28;5053805;28;20263;-75
2023/06/16 00:40:29;;;;;;;4.33;3.47;;;;;;;16.50;66.58;98097.59;5056497;28;20591;-75
2023/06/16 00:42:58;;;;;;;3.70;3.40;;;;;;;16.50;67.21;98098.41;5059232;28;20553;-75
2023/06/16 00:45:25;;;;;;;3.83;3.33;;;;;;;16.55;67.65;98092.28;5061690;28;20216;-75
2023/06/16 00:47:52;;;;;;;3.50;3.13;;;;;;;16.59;68.36;98086.13;5058124;28;20246;-75
2023/06/16 00:50:19;;;;;;;3.60;3.30;;;;;;;16.57;68.58;98090.16;5070448;28;20215;-75
2023/06/16 00:52:46;;;;;;;6.77;3.67;;;;;;;16.62;67.80;98085.63;5073007;28;20223;-75
2023/06/16 00:55:13;;;;;;;4.90;3.33;;;;;;;16.54;67.77;98091.47;5072373;28;20208;-76
2023/06/16 00:57:40;;;;;;;3.87;3.57;;;;;;;16.33;69.04;98081.56;5072428;28;20229;-75
2023/06/16 01:00:11;;;;;;;4.27;3.77;;;;;;;16.37;69.71;98082.69;5073538;28;20235;-75
2023/06/16 01:02:37;;;;;;;3.80;3.50;;;;;;;16.39;70.70;98080.56;5074934;28;20258;-75
2023/06/16 01:05:04;;;;;;;4.90;3.77;;;;;;;16.26;71.49;98085.53;5070247;28;20211;-75
2023/06/16 01:07:55;;;;;;;3.70;3.40;;;;;;;16.25;70.80;98084.75;5057568;28;20221;-75
2023/06/16 01:10:32;;;;;;;4.30;3.90;;;;;;;16.18;70.53;98084.13;5073120;28;20204;-75
2023/06/16 01:13:22;;;;;;;3.80;3.50;;;;;;;16.06;72.46;98086.13;5073581;28;20192;-75
2023/06/16 01:15:49;;;;;;;4.03;3.63;;;;;;;15.96;72.70;98085.25;5072350;28;20228;-75
2023/06/16 01:18:22;;;;;;;4.00;3.50;;;;;;;16.10;71.37;98075.75;5073003;28;20205;-75
2023/06/16 01:20:57;;;;;;;4.07;3.27;;;;;;;15.96;72.64;98088.72;5068604;28;20308;-75
2023/06/16 01:23:52;;;;;;;4.00;3.70;;;;;;;15.85;73.85;98089.69;5053104;28;20216;-75
2023/06/16 01:26:22;;;;;;;3.90;3.60;;;;;;;15.75;74.50;98086.88;5053454;28;20292;-75
2023/06/16 01:28:50;;;;;;;4.33;3.90;;;;;;;15.74;74.08;98087.13;5053185;28;20197;-75
2023/06/16 01:31:21;;;;;;;5.57;3.80;;;;;;;15.81;75.71;98088.56;5058159;28;20652;-75
2023/06/16 01:33:48;;;;;;;5.73;3.93;;;;;;;15.81;74.75;98079.69;5073250;28;20284;-75
2023/06/16 01:36:17;;;;;;;6.67;4.30;;;;;;;15.75;74.57;98075.34;5070446;28;20225;-75
2023/06/16 01:38:44;;;;;;;5.73;4.20;;;;;;;15.67;75.18;98079.28;5054818;28;20211;-75
2023/06/16 01:41:11;;;;;;;4.43;4.03;;;;;;;15.68;75.13;98074.72;5070460;28;20223;-75
2023/06/16 01:43:39;;;;;;;5.30;4.27;;;;;;;15.75;76.08;98076.16;5052927;28;20198;-75
2023/06/16 01:46:06;;;;;;;4.63;4.23;;;;;;;15.80;74.93;98070.03;5052214;28;20731;-75
2023/06/16 01:48:32;;;;;;;6.80;4.73;;;;;;;15.82;75.15;98073.28;5058863;28;20193;-75
2023/06/16 01:50:59;;;;;;;5.20;4.70;;;;;;;15.87;75.14;98079.50;5052224;28;20633;-75
2023/06/16 01:53:26;;;;;;;5.17;4.70;;;;;;;15.81;76.04;98080.53;5056079;28;20284;-76
2023/06/16 01:55:53;;;;;;;5.73;4.83;;;;;;;15.83;74.37;98074.91;5052757;28;20225;-75
2023/06/16 01:58:22;;;;;;;6.67;5.00;;;;;;;15.69;75.35;98071.78;5056106;28;20208;-75
2023/06/16 02:01:08;;;;;;;5.97;5.47;;;;;;;15.63;76.52;98072.81;5065039;28;20212;-75
2023/06/16 02:03:43;;;;;;;7.73;5.70;;;;;;;15.65;75.42;98077.94;5068539;28;20216;-75
2023/06/16 02:06:15;;;;;;;6.87;5.33;;;;;;;15.68;75.50;98077.41;5070963;28;20563;-75
2023/06/16 02:08:43;;;;;;;7.07;5.53;;;;;;;15.66;76.06;98084.91;5062673;28;20208;-75
2023/06/16 02:11:11;;;;;;;6.07;5.47;;;;;;;15.64;76.37;98090.50;5072613;28;20211;-75
2023/06/16 02:13:38;;;;;;;6.27;5.60;;;;;;;15.61;76.95;98088.31;5072499;28;20212;-75
2023/06/16 02:16:05;;;;;;;7.83;5.67;;;;;;;15.58;76.95;98083.47;5072498;28;20224;-75
2023/06/16 02:18:32;;;;;;;7.87;6.20;;;;;;;15.50;78.41;98080.41;5064127;28;20560;-75
2023/06/16 02:20:59;;;;;;;7.53;6.40;;;;;;;15.49;79.11;98090.31;5059610;28;20228;-75
2023/06/16 02:23:26;;;;;;;7.20;5.33;;;;;;;15.48;77.78;98088.72;5072348;28;20295;-75
2023/06/16 02:25:52;;;;;;;6.90;5.90;;;;;;;15.47;77.97;98089.75;5072915;28;20299;-75
2023/06/16 02:28:19;;;;;;;6.30;5.70;;;;;;;15.31;79.93;98095.94;5072584;28;20660;-75
2023/06/16 02:30:45;;;;;;;6.20;5.60;;;;;;;15.33;79.62;98093.81;5072838;28;20226;-75
2023/06/16 02:33:12;;;;;;;6.33;5.70;;;;;;;15.31;80.39;98095.94;5076475;28;20209;-75
2023/06/16 02:35:39;;;;;;;6.57;5.37;;;;;;;15.29;80.43;98091.91;5076324;28;20224;-75
2023/06/16 02:38:08;;;;;;;6.07;5.27;;;;;;;15.35;80.89;98098.97;5076441;28;20212;-75
2023/06/16 02:40:35;;;;;;;8.43;6.03;;;;;;;15.36;79.85;98101.41;5074500;28;20225;-75
2023/06/16 02:43:01;;;;;;;7.63;5.43;;;;;;;15.30;81.60;98102.38;5056167;28;20645;-76
2023/06/16 02:45:28;;;;;;;6.13;5.53;;;;;;;15.31;82.25;98089.78;5056286;28;20209;-75
2023/06/16 02:47:54;;;;;;;7.30;5.40;;;;;;;15.33;80.84;98096.50;5056039;28;20673;-75
2023/06/16 02:50:22;;;;;;;5.90;5.03;;;;;;;15.42;81.15;98088.91;5057862;28;20205;-75
2023/06/16 02:52:49;;;;;;;8.93;5.23;;;;;;;15.46;80.19;98095.34;5068624;28;20216;-75
2023/06/16 02:55:16;;;;;;;5.87;4.97;;;;;;;15.41;79.42;98100.66;5056138;28;20201;-75
2023/06/16 02:57:43;;;;;;;7.87;5.20;;;;;;;15.40;80.13;98101.72;5056206;28;20215;-75
2023/06/16 03:00:10;;;;;;;6.07;4.73;;;;;;;15.45;79.46;98089.19;5056126;28;20212;-75
2023/06/16 03:02:38;;;;;;;5.43;5.03;;;;;;;15.47;78.55;98100.47;5055553;28;20221;-75
2023/06/16 03:05:05;;;;;;;8.03;5.97;;;;;;;15.50;78.75;98097.28;5055642;28;20683;-75
2023/06/16 03:07:35;;;;;;;10.03;5.80;;;;;;;15.58;78.49;98098.72;5063200;28;20220;-75
2023/06/16 03:10:06;;;;;;;7.80;5.03;;;;;;;15.48;79.86;98094.06;5055546;28;20662;-75
2023/06/16 03:12:32;;;;;;;7.63;5.57;;;;;;;15.44;81.62;98103.66;5055685;28;20189;-75
2023/06/16 03:14:58;;;;;;;8.40;6.20;;;;;;;15.46;81.63;98104.22;5055545;28;20213;-75
2023/06/16 03:17:25;;;;;;;9.10;6.37;;;;;;;15.47;80.72;98097.00;5068952;28;20572;-75
2023/06/16 03:19:51;;;;;;;7.33;6.07;;;;;;;15.52;80.06;98105.09;5075343;28;20254;-75
2023/06/16 03:22:18;;;;;;;5.90;5.30;;;;;;;15.49;80.64;98092.19;5075031;28;20584;-75
2023/06/16 03:24:46;;;;;;;9.60;6.03;;;;;;;15.48;80.67;98094.06;5075212;28;20221;-75
2023/06/16 03:27:15;;;;;;;8.50;6.27;;;;;;;15.43;81.94;98101.22;5075456;28;20294;-75
2023/06/16 03:29:42;;;;;;;6.90;6.30;;;;;;;15.53;82.29;98099.50;5075498;28;20254;-75
2023/06/16 03:32:09;;;;;;;6.57;5.70;;;;;;;15.52;81.89;98097.84;5075417;28;20204;-75
2023/06/16 03:34:35;;;;;;;8.43;5.93;;;;;;;15.42;81.51;98100.41;5074820;28;20205;-75
2023/06/16 03:37:02;;;;;;;8.07;6.00;;;;;;;15.41;81.32;98106.81;5075168;28;20228;-75
2023/06/16 03:39:28;;;;;;;6.37;5.10;;;;;;;15.28;80.76;98111.72;5075093;28;20200;-75
2023/06/16 03:41:55;;;;;;;9.07;6.00;;;;;;;15.33;82.83;98104.53;5074862;28;20224;-75
2023/06/16 03:44:21;;;;;;;10.43;5.53;;;;;;;15.30;81.95;98098.88;5075105;28;20205;-75
2023/06/16 03:46:47;;;;;;;8.73;5.33;;;;;;;15.37;81.75;98108.38;5075053;28;20224;-75
2023/06/16 03:49:14;;;;;;;8.37;5.40;;;;;;;15.32;81.17;98105.59;5074707;28;20543;-75
2023/06/16 03:51:40;;;;;;;6.63;5.70;;;;;;;15.31;82.20;98103.97;5074504;28;20568;-76
2023/06/16 03:54:07;;;;;;;7.03;5.20;;;;;;;15.32;82.09;98105.59;5074879;28;20625;-75
2023/06/16 03:56:33;;;;;;;6.83;5.43;;;;;;;15.23;82.35;98103.59;5074711;28;20251;-75
2023/06/16 03:58:59;;;;;;;8.87;5.30;;;;;;;15.22;82.69;98112.69;5074419;28;20567;-75
2023/06/16 04:01:26;;;;;;;6.10;5.50;;;;;;;15.14;83.50;98108.56;5074347;28;20216;-75
2023/06/16 04:03:52;;;;;;;5.97;5.40;;;;;;;15.15;83.90;98112.06;5074647;28;20208;-75
2023/06/16 04:06:19;;;;;;;7.47;5.63;;;;;;;15.22;83.22;98116.19;5074584;28;20224;-75
2023/06/16 04:08:46;;;;;;;6.87;5.53;;;;;;;15.18;83.60;98119.59;5074677;28;20211;-75
2023/06/16 04:11:13;;;;;;;11.87;5.77;;;;;;;15.23;82.06;98117.78;5074427;28;20204;-76
2023/06/16 04:13:40;;;;;;;7.70;6.00;;;;;;;15.22;81.24;98113.50;5074612;28;20260;-76
2023/06/16 04:16:06;;;;;;;7.43;5.10;;;;;;;15.30;81.86;98118.44;5074386;28;20228;-75
2023/06/16 04:18:33;;;;;;;7.30;5.37;;;;;;;15.34;83.86;98108.06;5074424;28;20291;-75
2023/06/16 04:20:59;;;;;;;6.57;5.20;;;;;;;15.30;82.90;98112.25;5073845;28;20722;-75
2023/06/16 04:23:25;;;;;;;6.27;5.37;;;;;;;15.30;82.57;98115.75;5074197;28;20220;-76
2023/06/16 04:25:52;;;;;;;7.40;5.80;;;;;;;15.36;83.48;98117.47;5073944;28;20588;-75
2023/06/16 04:28:21;;;;;;;6.53;5.93;;;;;;;15.41;81.30;98125.56;5074231;28;20257;-75
2023/06/16 04:30:49;;;;;;;6.87;5.47;;;;;;;15.46;82.23;98120.28;5074302;28;20244;-75
2023/06/16 04:33:15;;;;;;;7.80;6.20;;;;;;;15.52;80.21;98115.81;5074190;28;20205;-75
2023/06/16 04:35:42;;;;;;;8.23;5.87;;;;;;;15.59;81.17;98127.13;5074209;28;20310;-75
2023/06/16 04:38:08;;;;;;;7.67;6.00;;;;;;;15.68;82.00;98120.28;5074008;28;20336;-75
2023/06/16 04:40:36;;;;;;;6.60;5.80;;;;;;;15.73;82.57;98121.16;5073791;28;20204;-75
2023/06/16 04:43:03;;;;;;;9.07;6.13;;;;;;;15.77;80.96;98116.94;5073641;28;20224;-75
2023/06/16 04:45:30;;;;;;;8.23;5.90;;;;;;;15.81;82.28;98120.72;5073280;28;20668;-75
2023/06/16 04:47:56;;;;;;;7.17;5.93;;;;;;;15.83;82.98;98120.50;5073185;28;20552;-75
2023/06/16 04:50:22;;;;;;;7.30;6.17;;;;;;;15.92;81.93;98117.09;5073629;28;20205;-76
2023/06/16 04:52:49;;;;;;;7.13;5.37;;;;;;;15.99;81.64;98116.91;5072977;28;20246;-76
2023/06/16 04:55:17;;;;;;;8.73;5.90;;;;;;;16.04;82.40;98103.53;5073614;28;20205;-76
2023/06/16 04:57:44;;;;;;;7.53;5.87;;;;;;;16.07;79.29;98106.56;5073193;28;20675;-76
2023/06/16 05:00:11;;;;;;;7.93;5.67;;;;;;;16.15;79.98;98102.59;5073265;28;20201;-76
2023/06/16 05:02:38;;;;;;;7.23;5.30;;;;;;;16.24;79.84;98104.56;5072848;28;20326;-76
2023/06/16 05:05:04;;;;;;;6.73;5.83;;;;;;;16.35;77.60;98114.34;5073452;28;20201;-76
2023/06/16 05:07:31;;;;;;;6.17;5.57;;;;;;;16.50;76.83;98114.50;5073334;28;20231;-76
2023/06/16 05:09:58;;;;;;;7.50;5.77;;;;;;;16.85;74.74;98117.50;5074655;28;20204;-76
2023/06/16 05:12:27;;;;;;;7.63;5.90;;;;;;;17.18;72.26;98116.34;5073518;28;20254;-76
2023/06/16 05:14:54;;;;;;;6.87;5.57;;;;;;;17.59;69.83;98119.06;5073579;28;20201;-76
2023/06/16 05:17:20;;;;;;;10.67;5.87;;;;;;;17.80;68.71;98112.69;5072956;28;20707;-76
2023/06/16 05:19:47;;;;;;;8.63;5.80;;;;;;;18.20;65.58;98112.81;5073386;28;20569;-76
2023/06/16 05:22:14;;;;;;;8.03;5.83;;;;;;;18.49;63.75;98116.66;5073409;28;20224;-76
2023/06/16 05:24:40;;;;;;;7.53;5.07;;;;;;;18.90;65.97;98115.59;5072984;28;20303;-76
2023/06/16 05:27:07;;;;;;;6.80;5.20;;;;;;;18.90;65.24;98117.47;5073376;28;20230;-76
2023/06/16 05:29:33;;;;;;;8.10;5.57;;;;;;;18.81;64.03;98121.78;5073087;28;20213;-76
2023/06/16 05:31:59;;;;;;;8.33;5.43;;;;;;;18.70;64.87;98114.78;5073391;28;20207;-76
2023/06/16 05:34:26;;;;;;;8.13;5.43;;;;;;;18.51;64.76;98117.19;5072701;28;20295;-76
2023/06/16 05:36:52;;;;;;;8.70;5.57;;;;;;;18.35;64.92;98112.88;5073251;28;20232;-76
2023/06/16 05:39:18;;;;;;;10.57;5.70;;;;;;;18.15;67.06;98112.78;5072855;28;20218;-76
2023/06/16 05:41:45;;;;;;;11.13;5.73;;;;;;;18.11;65.79;98119.81;5073129;28;20231;-76
2023/06/16 05:44:12;;;;;;;11.17;5.27;;;;;;;18.11;67.02;98122.50;5072731;28;20207;-76
2023/06/16 05:46:38;;;;;;;7.07;6.17;;;;;;;18.19;68.78;98124.63;5072978;28;20643;-76
2023/06/16 05:49:04;;;;;;;6.53;5.80;;;;;;;18.15;67.18;98128.94;5072724;28;20565;-76
2023/06/16 05:51:31;;;;;;;11.40;5.87;;;;;;;18.21;66.06;98119.00;5072675;28;20541;-76
2023/06/16 05:53:57;;;;;;;6.00;5.27;;;;;;;18.25;66.21;98117.41;5072925;28;20213;-76
2023/06/16 05:56:24;;;;;;;9.53;6.03;;;;;;;18.41;66.15;98117.19;5073095;28;20247;-76
2023/06/16 05:58:50;;;;;;;7.83;5.90;;;;;;;18.30;66.97;98123.59;5073207;28;20208;-76
2023/06/16 06:01:17;;;;;;;7.23;5.43;;;;;;;18.30;67.30;98129.00;5072664;28;20208;-76
2023/06/16 06:03:47;;;;;;;10.40;5.80;;;;;;;18.38;67.14;98125.00;5073043;28;20208;-76
2023/06/16 06:06:13;;;;;;;11.77;6.17;;;;;;;18.39;67.88;98129.28;5076830;28;20225;-74
2023/06/16 06:08:40;;;;;;;7.57;5.27;;;;;;;18.49;66.83;98124.75;5076682;28;20212;-74
2023/06/16 06:11:07;;;;;;;7.77;5.57;;;;;;;18.70;65.28;98130.94;5076544;28;20204;-74
2023/06/16 06:13:34;;;;;;;7.50;6.07;;;;;;;18.68;65.19;98135.81;5076147;28;20563;-74
2023/06/16 06:16:02;;;;;;;8.70;6.03;;;;;;;18.71;65.09;98133.38;5076168;28;20761;-74
2023/06/16 06:18:29;;;;;;;8.97;5.70;;;;;;;18.83;64.79;98130.41;5076509;28;20267;-74
2023/06/16 06:20:55;;;;;;;8.80;5.97;;;;;;;18.64;64.18;98135.50;5076422;28;20232;-74
2023/06/16 06:23:21;;;;;;;8.47;5.67;;;;;;;18.93;64.77;98143.88;5075731;28;20227;-74
2023/06/16 06:25:48;;;;;;;6.97;5.50;;;;;;;18.90;64.82;98147.94;5075215;28;20295;-74
2023/06/16 06:28:14;;;;;;;6.93;5.63;;;;;;;19.19;64.19;98148.97;5075928;28;20718;-74
2023/06/16 06:30:41;;;;;;;6.10;5.40;;;;;;;19.18;63.71;98147.38;5076109;28;20559;-74
2023/06/16 06:33:07;;;;;;;6.20;5.60;;;;;;;19.20;63.88;98155.19;5076237;28;20201;-74
2023/06/16 06:35:33;;;;;;;6.83;5.57;;;;;;;19.31;63.69;98159.50;5076056;28;20204;-74
2023/06/16 06:38:00;;;;;;;8.70;5.80;;;;;;;19.22;62.06;98158.41;5074417;28;20211;-74
2023/06/16 06:40:26;;;;;;;10.27;5.67;;;;;;;19.19;60.92;98156.28;5053700;28;20205;-74
2023/06/16 06:42:53;;;;;;;5.47;4.93;;;;;;;19.44;62.95;98154.38;5066500;28;20220;-74
2023/06/16 06:45:19;;;;;;;7.67;6.00;;;;;;;19.76;61.05;98159.41;5062740;28;20564;-74
2023/06/16 06:47:45;;;;;;;11.10;6.13;;;;;;;19.85;61.76;98160.44;5076126;28;20211;-74
2023/06/16 06:50:12;;;;;;;8.53;5.40;;;;;;;19.95;59.09;98160.44;5076118;28;20201;-74
2023/06/16 06:52:38;;;;;;;9.00;5.73;;;;;;;19.85;59.90;98159.66;5076204;28;20204;-74
2023/06/16 06:55:05;;;;;;;5.97;5.30;;;;;;;19.88;60.32;98169.88;5061580;28;20205;-74
2023/06/16 06:57:31;;;;;;;8.10;5.30;;;;;;;20.01;59.39;98169.28;5055244;28;20225;-74
2023/06/16 06:59:58;;;;;;;9.67;5.57;;;;;;;19.94;59.37;98174.97;5058695;28;20216;-74
2023/06/16 07:02:24;;;;;;;6.87;5.00;;;;;;;20.13;59.20;98175.22;5055368;28;20213;-74
2023/06/16 07:04:51;;;;;;;7.27;5.00;;;;;;;20.32;58.71;98179.72;5055582;28;20236;-74
2023/06/16 07:07:17;;;;;;;7.17;5.23;;;;;;;20.44;56.96;98176.69;5055409;28;20225;-75
2023/06/16 07:09:44;;;;;;;8.60;4.50;;;;;;;20.69;55.45;98181.91;5055034;28;20580;-74
2023/06/16 07:12:10;;;;;;;7.00;4.40;;;;;;;20.72;53.02;98181.38;5055326;28;20208;-74
2023/06/16 07:14:38;;;;;;;5.53;4.17;;;;;;;20.71;52.33;98174.34;5055135;28;20295;-75
2023/06/16 07:17:04;;;;;;;5.03;4.10;;;;;;;20.73;50.92;98175.69;5054162;28;20238;-74
2023/06/16 07:19:31;;;;;;;5.70;4.03;;;;;;;21.08;50.16;98175.47;5055014;28;20205;-74
2023/06/16 07:21:57;;;;;;;9.43;4.10;;;;;;;21.20;50.75;98177.78;5054922;28;20233;-74
2023/06/16 07:24:24;;;;;;;6.43;4.20;;;;;;;21.26;49.79;98182.84;5054747;28;20225;-75
2023/06/16 07:26:50;;;;;;;4.57;4.03;;;;;;;21.05;49.95;98178.72;5054945;28;20229;-74
2023/06/16 07:29:17;;;;;;;5.37;4.00;;;;;;;20.93;51.73;98180.19;5055000;28;20208;-74
2023/06/16 07:31:44;;;;;;;4.63;3.70;;;;;;;21.12;52.05;98183.81;5055074;28;20300;-74
2023/06/16 07:34:10;;;;;;;4.80;3.43;;;;;;;21.31;50.00;98188.25;5054856;28;20206;-75
2023/06/16 07:36:38;;;;;;;6.03;3.53;;;;;;;21.22;45.92;98183.72;5054640;28;20229;-75
2023/06/16 07:39:04;;;;;;;7.17;3.67;;;;;;;21.12;45.28;98189.22;5055015;28;20205;-75
2023/06/16 07:41:32;;;;;;;6.17;3.50;;;;;;;21.27;45.62;98192.59;5054488;28;20251;-75
2023/06/16 07:43:58;;;;;;;5.67;4.00;;;;;;;21.24;46.63;98189.63;5054759;28;20679;-75
2023/06/16 07:46:24;;;;;;;6.03;3.40;;;;;;;21.31;46.24;98190.13;5054999;28;20240;-74
2023/06/16 07:48:51;;;;;;;4.20;3.80;;;;;;;21.29;45.11;98184.22;5055927;28;20205;-75
2023/06/16 07:51:17;;;;;;;5.10;3.70;;;;;;;21.32;44.78;98183.63;5054692;28;20669;-75
2023/06/16 07:53:44;;;;;;;4.77;3.50;;;;;;;21.45;44.26;98183.78;5054729;28;20227;-75
2023/06/16 07:56:10;;;;;;;6.70;3.80;;;;;;;21.76;45.28;98189.72;5054649;28;20229;-74
2023/06/16 07:58:38;;;;;;;4.20;3.53;;;;;;;21.67;41.61;98185.97;5054434;28;20205;-74
2023/06/16 08:01:05;;;;;;;6.07;3.60;;;;;;;21.55;41.37;98188.25;5054723;28;20251;-74
2023/06/16 08:03:31;;;;;;;5.87;3.40;;;;;;;21.77;41.42;98180.50;5054694;28;20229;-74
2023/06/16 08:05:58;;;;;;;7.03;3.43;;;;;;;22.11;43.63;98192.03;5054614;28;20594;-74
2023/06/16 08:08:26;;;;;;;3.97;3.10;;;;;;;22.26;42.04;98187.22;5054621;28;20212;-74
2023/06/16 08:10:52;;;;;;;7.50;4.00;;;;;;;22.10;42.40;98179.56;5054323;28;20287;-75
2023/06/16 08:13:19;;;;;;;4.28;3.88;;;;;;;22.21;41.94;98175.63;5054115;28;20668;-75
2023/06/16 08:15:45;;;;;;;5.85;4.20;;;;;;;22.18;40.54;98178.91;5054241;28;20728;-74
2023/06/16 08:18:11;;;;;;;5.65;4.20;;;;;;;22.12;40.28;98180.09;5054402;28;20205;-74
2023/06/16 08:20:37;;;;;;;7.80;5.75;;;;;;;22.04;39.99;98181.53;5054485;28;20205;-74
2023/06/16 08:23:04;;;;;;;5.32;4.25;;;;;;;22.23;39.79;98178.84;5054069;28;20229;-75
2023/06/16 08:25:30;;;;;;;4.22;3.15;;;;;;;22.36;39.58;98183.56;5054293;28;20205;-75
2023/06/16 08:27:57;;;;;;;4.85;3.20;;;;;;;22.12;37.36;98170.03;5053256;28;20209;-75
2023/06/16 08:30:23;;;;;;;3.60;3.30;;;;;;;22.48;38.68;98173.13;5053613;28;20688;-75
2023/06/16 08:32:51;;;;;;;7.65;3.30;;;;;;;22.47;37.56;98174.25;5053939;28;20207;-75
2023/06/16 08:35:18;;;;;;;6.18;3.63;;;;;;;22.61;36.37;98173.22;5053406;28;20702;-75
2023/06/16 08:37:44;;;;;;;6.85;4.00;;;;;;;22.76;37.26;98167.59;5053497;28;20220;-75
2023/06/16 08:40:12;;;;;;;5.57;3.33;;;;;;;22.69;35.42;98169.03;5053634;28;20698;-75
2023/06/16 08:42:38;;;;;;;5.05;3.38;;;;;;;23.20;34.43;98170.69;5054501;28;20253;-75
2023/06/16 08:45:06;;;;;;;6.65;3.45;;;;;;;23.36;33.37;98165.78;5053950;28;20224;-75
2023/06/16 08:47:34;;;;;;;3.13;2.78;;;;;;;23.39;32.26;98167.94;5053858;28;20228;-75
2023/06/16 08:50:01;;;;;;;6.40;3.50;;;;;;;23.35;32.33;98166.91;5053564;28;20217;-75
2023/06/16 08:52:30;;;;;;;5.15;2.83;;;;;;;23.46;34.04;98163.72;5053411;28;20228;-75
2023/06/16 08:55:01;;;;;;;6.90;3.33;;;;;;;24.00;33.58;98169.22;5053013;28;20209;-75
2023/06/16 08:57:29;;;;;;;4.43;3.30;;;;;;;23.94;33.21;98166.91;5052885;28;20704;-75
2023/06/16 08:59:59;;;;;;;4.25;3.28;;;;;;;23.76;31.58;98167.78;5053243;28;20244;-75
2023/06/16 09:02:29;;;;;;;3.33;3.00;;;;;;;23.66;32.42;98162.53;5053352;28;20221;-75
2023/06/16 09:04:58;;;;;;;6.43;3.20;;;;;;;23.99;30.93;98166.81;5053887;28;20269;-75
2023/06/16 09:07:27;;;;;;;5.07;3.13;;;;;;;23.92;29.96;98159.06;5053151;28;20765;-75
2023/06/16 09:09:55;;;;;;;4.03;2.80;;;;;;;23.92;31.42;98167.19;5053443;28;20209;-75
2023/06/16 09:12:22;;;;;;;7.20;3.15;;;;;;;23.89;30.78;98161.53;5053190;28;20227;-75
2023/06/16 09:14:50;;;;;;;3.38;3.08;;;;;;;24.02;31.78;98156.13;5053240;28;20202;-75
2023/06/16 09:17:27;;;;;;;5.75;3.67;;;;;;;23.76;32.63;98157.72;5053348;28;20374;-75
2023/06/16 09:19:55;;;;;;;3.38;3.03;;;;;;;24.22;30.12;98153.00;5053450;28;20192;-75
2023/06/16 09:22:26;;;;;;;3.85;2.70;;;;;;;24.37;30.48;98149.16;5053174;28;20225;-74
2023/06/16 09:25:01;;;;;;;4.65;3.10;;;;;;;24.47;30.26;98152.44;5052608;28;20303;-75
2023/06/16 09:27:50;;;;;;;3.60;3.30;;;;;;;24.46;32.15;98155.50;5053320;28;20221;-74
2023/06/16 09:30:20;;;;;;;3.50;2.72;;;;;;;24.00;30.89;98157.53;5053516;28;20251;-74
2023/06/16 09:32:48;;;;;;;4.60;3.05;;;;;;;24.46;31.53;98144.63;5053258;28;20209;-75
2023/06/16 09:35:25;;;;;;;5.38;2.90;;;;;;;24.46;31.40;98153.56;5052948;28;20236;-75
2023/06/16 09:37:56;;;;;;;5.10;3.13;;;;;;;23.99;30.99;98147.78;5053173;28;20201;-75
2023/06/16 09:40:28;;;;;;;4.13;3.30;;;;;;;24.69;30.93;98146.28;5059231;28;20193;-74
2023/06/16 09:42:57;;;;;;;6.85;3.70;;;;;;;25.04;31.37;98142.69;5059916;28;20568;-74
2023/06/16 09:45:27;;;;;;;5.60;3.33;;;;;;;24.89;31.22;98148.53;5060113;28;20205;-74
2023/06/16 09:47:53;;;;;;;9.75;8.38;;;;;;;24.72;30.82;98146.47;5059780;28;20211;-76
2023/06/16 09:50:23;;;;;;;4.93;3.03;;;;;;;24.26;30.33;98145.88;5059746;28;20204;-75
2023/06/16 09:52:50;;;;;;;6.20;3.45;;;;;;;24.28;29.93;98145.56;5059390;28;20200;-75
2023/06/16 09:55:16;;;;;;;3.92;3.00;;;;;;;23.74;30.53;98140.91;5059648;28;20694;-75
2023/06/16 09:57:49;;;;;;;3.85;3.40;;;;;;;23.25;32.52;98132.59;5059151;28;20672;-75
2023/06/16 10:00:17;;;;;;;4.70;3.60;;;;;;;23.47;32.67;98126.53;5058852;28;20189;-75
2023/06/16 10:02:48;;;;;;;5.05;3.35;;;;;;;24.07;31.60;98125.34;5059652;28;20241;-75
2023/06/16 10:05:17;;;;;;;4.32;3.42;;;;;;;23.89;34.02;98128.97;5059468;28;20201;-75
2023/06/16 10:07:47;;;;;;;6.15;3.53;;;;;;;24.13;32.02;98133.09;5059487;28;20217;-75
2023/06/16 10:10:15;;;;;;;5.70;3.35;;;;;;;24.19;31.87;98131.09;5059518;28;20208;-75
2023/06/16 10:12:51;;;;;;;4.40;3.55;;;;;;;23.73;31.06;98127.63;5059520;28;20307;-75
2023/06/16 10:15:26;;;;;;;5.85;3.40;;;;;;;23.58;31.46;98144.22;5059462;28;20189;-75
2023/06/16 10:17:55;;;;;;;5.63;3.05;;;;;;;23.35;31.44;98131.63;5059302;28;20211;-75
2023/06/16 10:20:25;;;;;;;5.45;3.03;;;;;;;23.71;33.10;98132.59;5059876;28;20295;-74
2023/06/16 10:22:51;;;;;;;6.50;3.67;;;;;;;23.55;34.21;98126.63;5059357;28;20221;-75
2023/06/16 10:25:19;;;;;;;3.60;3.20;;;;;;;23.67;33.19;98134.28;5059264;28;20197;-75
2023/06/16 10:27:46;;;;;;;4.80;3.35;;;;;;;24.31;32.59;98131.34;5059181;28;20765;-75
2023/06/16 10:30:16;;;;;;;4.03;3.47;;;;;;;24.41;32.29;98129.22;5057989;28;20209;-75
2023/06/16 10:32:46;;;;;;;5.63;3.40;;;;;;;24.50;32.68;98132.00;5059083;28;20632;-75
2023/06/16 10:35:14;;;;;;;3.95;3.00;;;;;;;24.84;32.19;98126.88;5059297;28;20205;-75
2023/06/16 10:37:40;;;;;;;3.92;3.30;;;;;;;25.41;30.77;98134.16;5058667;28;20237;-75
2023/06/16 10:40:08;;;;;;;6.10;3.80;;;;;;;25.14;29.52;98132.38;5059241;28;20205;-75
2023/06/16 10:42:35;;;;;;;6.45;3.10;;;;;;;25.63;29.44;98131.38;5058977;28;20216;-75
2023/06/16 10:45:28;;;;;;;6.13;3.50;;;;;;;25.28;29.51;98122.25;5059057;28;20209;-75
2023/06/16 10:48:03;;;;;;;5.07;3.80;;;;;;;24.86;29.98;98127.38;5058676;28;20288;-75
2023/06/16 10:51:00;;;;;;;3.45;3.10;;;;;;;24.06;30.47;98135.41;5057244;28;20247;-75
2023/06/16 10:53:27;;;;;;;3.78;3.38;;;;;;;23.81;30.94;98127.75;5055839;28;20653;-75
2023/06/16 10:56:11;;;;;;;3.35;3.03;;;;;;;24.06;29.25;98129.19;5056063;28;20225;-75
2023/06/16 10:58:37;;;;;;;3.47;3.17;;;;;;;24.19;29.32;98129.16;5055895;28;20205;-75
2023/06/16 11:01:24;;;;;;;5.15;3.38;;;;;;;24.60;29.62;98120.94;5055826;28;20209;-75
2023/06/16 11:04:00;;;;;;;7.68;3.10;;;;;;;24.76;29.37;98114.84;5055608;28;20209;-74
2023/06/16 11:06:27;;;;;;;3.95;3.50;;;;;;;25.38;30.20;98116.53;5055583;28;20236;-74
2023/06/16 11:08:55;;;;;;;5.05;3.50;;;;;;;25.35;28.89;98130.78;5055432;28;20212;-74
2023/06/16 11:11:23;;;;;;;5.72;3.42;;;;;;;25.31;30.23;98126.25;5055498;28;20209;-74
2023/06/16 11:13:49;;;;;;;4.03;3.30;;;;;;;25.22;29.34;98117.22;5054990;28;20553;-74
2023/06/16 11:16:15;;;;;;;3.65;3.17;;;;;;;25.71;28.11;98120.56;5055252;28;20569;-75
2023/06/16 11:18:43;;;;;;;4.28;3.35;;;;;;;25.44;29.68;98130.81;5055199;28;20580;-74
2023/06/16 11:21:10;;;;;;;5.55;3.33;;;;;;;25.66;29.01;98128.03;5055325;28;20235;-74
2023/06/16 11:23:36;;;;;;;3.78;3.10;;;;;;;25.63;27.87;98125.94;5055552;28;20294;-74
2023/06/16 11:26:23;;;;;;;4.63;3.25;;;;;;;25.67;27.83;98132.38;5055642;28;20229;-74
2023/06/16 11:28:50;;;;;;;5.85;3.55;;;;;;;25.08;26.92;98120.03;5055408;28;20197;-74
2023/06/16 11:31:16;;;;;;;3.47;3.03;;;;;;;25.23;28.05;98116.13;5055282;28;20252;-73
2023/06/16 11:33:42;;;;;;;5.32;3.60;;;;;;;25.20;30.05;98105.84;5054883;28;20201;-74
2023/06/16 11:36:23;;;;;;;6.22;3.70;;;;;;;25.34;27.38;98103.88;5054781;28;20229;-73
2023/06/16 11:38:52;;;;;;;4.85;3.55;;;;;;;25.55;28.63;98108.47;5055209;28;20213;-74